< Cyclone 201516 2015 Season Cyclone 201519 >
Cyclone 201517 (Nathan)
General InformationDetailed Track InformationTrack Information on Google MapsList of All Images || ResourceGoogle EarthGE AnimationAtom FeedGeoJSON
Detalied Best Track Wind (Time Zone = UTC)
Year Month Day Hour Lat. Long. Wind (kt) Gust (kt) Direc. of Major Storm Axis Radius of Major Storm Axis (nm) Radius of Minor Storm Axis (nm) Direc. of Major Gale Axis Radius of Major Gale Axis (nm) Radius of Minor Gale Axis (nm) Image
2015 3 9 00 -12.3 151.3 15 35 symmetric - - symmetric - - Image
2015 3 9 06 -12.3 150.9 15 35 symmetric - - symmetric - - Image
2015 3 9 12 -12.4 150.4 25 40 symmetric - - symmetric - - Image
2015 3 10 00 -12.4 149.6 30 45 symmetric - - symmetric - - Image
2015 3 10 06 -13.0 149.0 30 45 symmetric - - symmetric - - Image
2015 3 10 12 -13.0 148.3 40 55 symmetric - - symmetric - - Image
2015 3 10 18 -13.4 147.5 45 65 symmetric - - symmetric - - Image
2015 3 11 00 -13.7 146.8 50 70 symmetric - - symmetric - - Image
2015 3 11 06 -13.7 146.4 50 70 symmetric - - symmetric - - Image
2015 3 11 12 -13.8 146.0 50 70 symmetric - - symmetric - - Image
2015 3 11 18 -13.7 145.8 50 70 symmetric - - symmetric - - Image
2015 3 12 00 -13.8 145.4 50 70 symmetric - - symmetric - - Image
2015 3 12 06 -13.8 145.1 50 70 symmetric - - symmetric - - Image
2015 3 12 12 -13.7 145.0 55 80 symmetric - - symmetric - - Image
2015 3 12 18 -13.4 145.0 55 75 symmetric - - symmetric - - Image
2015 3 13 00 -13.3 145.0 55 75 symmetric - - symmetric - - Image
2015 3 13 06 -13.3 145.1 55 75 symmetric - - symmetric - - Image
2015 3 13 12 -13.1 145.0 55 75 symmetric - - symmetric - - Image
2015 3 13 18 -13.0 145.0 55 75 symmetric - - symmetric - - Image
2015 3 14 00 -13.2 145.5 50 70 symmetric - - symmetric - - Image
2015 3 14 06 -13.0 145.8 45 65 symmetric - - symmetric - - Image
2015 3 14 12 -13.2 146.9 40 55 symmetric - - symmetric - - Image
2015 3 14 18 -13.3 147.5 40 55 symmetric - - symmetric - - Image
2015 3 15 00 -13.1 148.5 45 65 symmetric - - symmetric - - Image
2015 3 15 06 -13.6 148.8 45 65 symmetric - - symmetric - - Image
2015 3 15 12 -13.6 149.0 45 65 symmetric - - symmetric - - Image
2015 3 15 18 -13.7 149.7 50 70 symmetric - - symmetric - - Image
2015 3 16 00 -13.8 149.7 50 70 symmetric - - symmetric - - Image
2015 3 16 06 -13.9 149.8 55 75 symmetric - - symmetric - - Image
2015 3 16 12 -14.0 149.8 50 70 symmetric - - symmetric - - Image
2015 3 16 18 -14.2 149.7 50 70 symmetric - - symmetric - - Image
2015 3 17 00 -14.4 149.6 45 65 symmetric - - symmetric - - Image
2015 3 17 06 -14.6 149.7 45 65 symmetric - - symmetric - - Image
2015 3 17 12 -14.8 149.7 40 55 symmetric - - symmetric - - Image
2015 3 17 18 -15.1 149.4 45 60 symmetric - - symmetric - - Image
2015 3 18 00 -15.1 149.2 50 70 symmetric - - symmetric - - Image
2015 3 18 06 -14.9 149.0 65 90 symmetric - - symmetric - - Image
2015 3 18 12 -14.7 148.8 75 105 symmetric - - symmetric - - Image
2015 3 18 18 -14.6 148.2 75 105 symmetric - - symmetric - - Image
2015 3 19 00 -14.5 147.6 75 105 symmetric - - symmetric - - Image
2015 3 19 06 -14.6 146.9 75 105 symmetric - - symmetric - - Image
2015 3 19 12 -14.7 146.0 85 120 symmetric - - symmetric - - Image
2015 3 19 18 -14.6 145.0 90 125 symmetric - - symmetric - - Image
2015 3 20 00 -14.4 144.2 65 90 symmetric - - symmetric - - Image
2015 3 20 06 -14.3 143.2 45 65 symmetric - - symmetric - - Image
2015 3 20 12 -14.3 142.2 40 55 symmetric - - symmetric - - Image
2015 3 20 18 -14.0 141.4 35 50 symmetric - - symmetric - - Image
2015 3 21 00 -13.6 140.2 40 55 symmetric - - symmetric - - Image
2015 3 21 06 -13.6 139.4 40 55 symmetric - - symmetric - - Image
2015 3 21 12 -13.3 138.5 50 70 symmetric - - symmetric - - Image
2015 3 21 18 -12.9 137.3 60 85 symmetric - - symmetric - - Image
2015 3 22 00 -12.5 136.8 60 85 symmetric - - symmetric - - Image
2015 3 22 06 -12.1 136.1 55 75 symmetric - - symmetric - - Image
2015 3 22 12 -11.6 135.6 55 75 symmetric - - symmetric - - Image
2015 3 22 18 -11.6 135.2 60 85 symmetric - - symmetric - - Image
2015 3 23 00 -11.5 134.7 60 85 symmetric - - symmetric - - Image
2015 3 23 06 -11.4 134.5 55 75 symmetric - - symmetric - - Image
2015 3 23 12 -11.4 134.3 50 70 symmetric - - symmetric - - Image
2015 3 23 18 -11.6 134.0 45 65 symmetric - - symmetric - - Image
2015 3 24 00 -12.1 133.5 35 50 symmetric - - symmetric - - Image
2015 3 24 06 -12.4 132.6 0 -1 symmetric - - symmetric - - Image
2015 3 24 12 -12.3 132.3 0 -1 symmetric - - symmetric - - Image
2015 3 24 18 -12.4 132.0 0 -1 symmetric - - symmetric - - Image
2015 3 25 00 -12.7 131.7 0 -1 symmetric - - symmetric - - Image
2015 3 25 06 -12.9 130.5 0 -1 symmetric - - symmetric - - Image
2015 3 25 12 -13.5 130.2 0 -1 symmetric - - symmetric - - Image
2015 3 25 18 -13.6 129.9 0 -1 symmetric - - symmetric - - Image
2015 3 26 00 -12.7 128.5 0 -1 symmetric - - symmetric - - Image
2015 3 26 06 -12.9 128.0 0 -1 symmetric - - symmetric - - Image
2015 3 26 12 -12.9 127.2 0 -1 symmetric - - symmetric - - Image
2015 3 26 18 -12.9 126.8 0 -1 symmetric - - symmetric - - Image
2015 3 27 00 -12.9 126.0 0 -1 symmetric - - symmetric - - Image
< Cyclone 201516 2015 Season Cyclone 201519 >

Help